Delhi, India
Current Conditions -  °F | °C
As of 1:30 PM on Sunday 23 Nov 2014 (Local Time) from VIDP Reporting Station
Haze Haze  
Wind Chill: 81°   Ceiling: Unl
Heat Index: 81°   Visibility: 1.3mi
Dew Point: 37°   Wind: 7mph
Humidity: 21%   Direction: 320°NW
Pressure: 29.94"   Gusts: NA
Location:  28.66°N, 77.23°E
Report Text: VIDP 230830Z 32006KT 2200 HZ NSC 27/03 Q1014 NOSIG
Loading
Personal Weather Stations






























Interactive Weather Map New forecast layout! Learn more

10-Day Weather Forecast

Advertisements
Track Severe Weather on mobile